createdAt,value
2022-07-25T00:04:09.720Z,9.23
2022-07-25T00:09:17.174Z,8.57
2022-07-25T00:14:20.255Z,7.93
2022-07-25T00:19:23.486Z,7.85
2022-07-25T00:24:28.549Z,8.73
2022-07-25T00:29:31.803Z,8.75
2022-07-25T00:34:35.275Z,8.70
2022-07-25T00:39:39.954Z,9.20
2022-07-25T00:44:43.205Z,9.50
2022-07-25T00:49:46.835Z,9.57
2022-07-25T00:54:51.783Z,9.55
2022-07-25T00:59:55.212Z,8.95
2022-07-25T01:04:59.964Z,9.70
2022-07-25T01:10:06.294Z,8.63
2022-07-25T01:15:10.804Z,8.80
2022-07-25T01:20:17.099Z,9.30
2022-07-25T01:25:20.752Z,10.18
2022-07-25T01:30:25.148Z,9.52
2022-07-25T01:35:30.001Z,9.07
2022-07-25T01:40:33.552Z,9.10
2022-07-25T01:45:36.973Z,9.23
2022-07-25T01:50:42.143Z,9.45
2022-07-25T01:55:46.027Z,8.60
2022-07-25T02:00:49.723Z,9.55
2022-07-25T02:05:54.283Z,9.10
2022-07-25T02:10:57.817Z,9.32
2022-07-25T02:16:01.121Z,10.02
2022-07-25T02:21:14.440Z,9.05
2022-07-25T02:26:18.060Z,8.75
2022-07-25T02:31:21.391Z,9.63
2022-07-25T02:36:27.135Z,10.05
2022-07-25T02:41:30.636Z,10.00
2022-07-25T02:46:34.059Z,9.85
2022-07-25T02:51:38.821Z,9.30
2022-07-25T02:56:42.011Z,8.98
2022-07-25T03:01:45.228Z,9.50
2022-07-25T03:06:50.264Z,8.48
2022-07-25T03:11:53.569Z,9.77
2022-07-25T03:16:56.874Z,10.13
2022-07-25T03:22:01.906Z,10.10
2022-07-25T03:27:05.177Z,9.00
2022-07-25T03:32:09.099Z,9.80
2022-07-25T03:37:13.677Z,10.05
2022-07-25T03:42:17.482Z,10.88
2022-07-25T03:47:21.011Z,10.00
2022-07-25T03:52:26.124Z,10.57
2022-07-25T03:57:29.371Z,10.73
2022-07-25T04:02:32.601Z,10.57
2022-07-25T04:07:38.803Z,11.57
2022-07-25T04:12:42.054Z,11.25
2022-07-25T04:17:45.228Z,11.98
2022-07-25T04:22:50.117Z,10.85
2022-07-25T04:27:53.402Z,9.90
2022-07-25T04:32:56.966Z,10.75
2022-07-25T04:38:01.839Z,10.00
2022-07-25T04:43:05.609Z,10.57
2022-07-25T04:48:08.843Z,12.10
2022-07-25T04:53:13.499Z,11.63
2022-07-25T04:58:16.805Z,10.93
2022-07-25T05:03:19.804Z,9.80
2022-07-25T05:08:24.351Z,10.32
2022-07-25T05:13:27.386Z,7.43
2022-07-25T05:18:30.633Z,7.15
2022-07-25T05:23:35.346Z,6.35
2022-07-25T05:28:38.575Z,4.82
2022-07-25T05:33:42.823Z,5.50
2022-07-25T05:38:47.510Z,4.20
2022-07-25T05:43:50.864Z,4.60
2022-07-25T05:48:53.958Z,3.55
2022-07-25T05:53:58.425Z,3.55
2022-07-25T05:59:02.111Z,3.85
2022-07-25T06:04:05.753Z,3.60
2022-07-25T06:09:21.640Z,3.25
2022-07-25T06:14:24.890Z,3.33
2022-07-25T06:19:28.315Z,2.47
2022-07-25T06:24:32.843Z,3.75
2022-07-25T06:29:36.080Z,3.28
2022-07-25T06:34:39.329Z,3.28
2022-07-25T06:39:45.882Z,3.20
2022-07-25T06:44:49.225Z,3.40
2022-07-25T06:49:52.329Z,3.05
2022-07-25T06:54:57.021Z,2.70
2022-07-25T07:00:00.416Z,2.88
2022-07-25T07:05:03.535Z,2.80
2022-07-25T07:10:09.425Z,2.95
2022-07-25T07:15:13.053Z,2.90
2022-07-25T07:20:16.671Z,3.17
2022-07-25T07:25:21.807Z,3.17
2022-07-25T07:30:37.647Z,3.10
2022-07-25T07:35:48.385Z,3.20
2022-07-25T07:40:53.054Z,2.80
2022-07-25T07:45:57.165Z,2.97
2022-07-25T07:51:02.097Z,3.17
2022-07-25T07:56:07.429Z,2.88
2022-07-25T08:01:10.316Z,2.80
2022-07-25T08:06:13.695Z,2.83
2022-07-25T08:11:18.226Z,2.92
2022-07-25T08:16:22.849Z,3.33
2022-07-25T08:21:26.018Z,3.10
2022-07-25T08:26:33.932Z,3.20
2022-07-25T08:31:36.991Z,2.90
2022-07-25T08:36:40.121Z,2.85
2022-07-25T08:41:44.714Z,3.03
2022-07-25T08:46:49.330Z,2.78
2022-07-25T08:51:52.671Z,2.85
2022-07-25T08:56:57.588Z,3.35
2022-07-25T09:02:02.831Z,2.97
2022-07-25T09:07:08.593Z,2.72
2022-07-25T09:12:13.173Z,2.78
2022-07-25T09:17:22.596Z,2.90
2022-07-25T09:22:28.141Z,3.28
2022-07-25T09:27:34.895Z,3.50
2022-07-25T09:32:37.938Z,3.10
2022-07-25T09:37:41.318Z,2.72
2022-07-25T09:42:51.827Z,2.65
2022-07-25T09:47:57.832Z,3.10
2022-07-25T09:53:02.814Z,3.00
2022-07-25T09:58:07.563Z,2.67
2022-07-25T10:03:29.771Z,3.00
2022-07-25T10:08:37.012Z,2.30
2022-07-25T10:13:41.805Z,2.40
2022-07-25T10:18:50.180Z,2.53
2022-07-25T10:24:01.883Z,2.72
2022-07-25T10:29:11.418Z,2.60
2022-07-25T10:34:14.695Z,2.67
2022-07-25T10:39:20.004Z,2.40
2022-07-25T10:44:27.675Z,2.60
2022-07-25T10:49:36.665Z,2.63
2022-07-25T10:54:39.778Z,2.38
2022-07-25T10:59:44.545Z,2.58
2022-07-25T11:04:59.651Z,2.40
2022-07-25T11:10:05.886Z,2.75
2022-07-25T11:15:17.121Z,2.40
2022-07-25T11:20:20.720Z,2.78
2022-07-25T11:25:24.038Z,2.20
2022-07-25T11:30:32.714Z,2.60
2022-07-25T11:35:35.698Z,2.13
2022-07-25T11:40:44.318Z,1.92
2022-07-25T11:45:57.527Z,2.35
2022-07-25T11:51:13.618Z,2.10
2022-07-25T11:56:41.419Z,2.20
2022-07-25T12:01:45.747Z,2.25
2022-07-25T12:06:50.498Z,2.25
2022-07-25T12:12:03.235Z,1.95
2022-07-25T12:17:08.134Z,2.60
2022-07-25T12:22:11.174Z,2.38
2022-07-25T12:27:14.948Z,1.98
2022-07-25T12:32:19.594Z,1.90
2022-07-25T12:37:22.692Z,1.70
2022-07-25T12:42:26.392Z,1.90
2022-07-25T12:47:31.029Z,1.70
2022-07-25T12:52:34.342Z,1.90
2022-07-25T12:57:38.093Z,1.85
2022-07-25T13:02:43.376Z,2.17
2022-07-25T13:07:47.798Z,2.20
2022-07-25T13:12:50.875Z,2.10
2022-07-25T13:17:55.793Z,2.00
2022-07-25T13:22:58.779Z,2.00
2022-07-25T13:28:03.221Z,2.10
2022-07-25T13:33:09.179Z,2.30
2022-07-25T13:38:12.472Z,1.90
2022-07-25T13:43:15.713Z,1.75
2022-07-25T13:48:29.362Z,2.00
2022-07-25T13:53:33.486Z,1.83
2022-07-25T13:58:36.548Z,1.90
2022-07-25T14:03:41.611Z,1.85
2022-07-25T14:08:45.946Z,1.95
2022-07-25T14:13:49.011Z,2.00
2022-07-25T14:18:55.241Z,1.80
2022-07-25T14:23:58.341Z,1.60
2022-07-25T14:29:03.380Z,1.77
2022-07-25T14:34:08.319Z,1.85
2022-07-25T14:39:11.396Z,1.60
2022-07-25T14:44:14.313Z,2.10
2022-07-25T14:49:19.054Z,1.73
2022-07-25T14:54:22.493Z,1.70
2022-07-25T14:59:25.945Z,1.88
2022-07-25T15:04:30.407Z,1.75
2022-07-25T15:09:33.497Z,1.80
2022-07-25T15:14:36.918Z,1.50
2022-07-25T15:19:41.425Z,1.77
2022-07-25T15:25:17.967Z,1.55
2022-07-25T15:30:08.450Z,1.40
2022-07-25T15:35:13.023Z,1.33
2022-07-25T15:40:16.364Z,1.67
2022-07-25T15:45:36.728Z,1.58
2022-07-25T15:50:43.458Z,1.70
2022-07-25T15:55:46.610Z,1.30
2022-07-25T16:00:50.111Z,1.42
2022-07-25T16:05:56.898Z,1.45
2022-07-25T16:11:00.397Z,1.30
2022-07-25T16:16:03.807Z,1.40
2022-07-25T16:21:08.582Z,1.40
2022-07-25T16:26:12.611Z,1.45
2022-07-25T16:31:16.874Z,1.63
2022-07-25T16:36:21.765Z,1.45
2022-07-25T16:41:25.540Z,1.60
2022-07-25T16:46:28.838Z,1.70
2022-07-25T16:51:36.988Z,1.25
2022-07-25T16:56:40.902Z,1.40
2022-07-25T17:01:47.143Z,1.40
2022-07-25T17:06:52.337Z,1.63
2022-07-25T17:11:55.786Z,1.60
2022-07-25T17:16:59.245Z,1.70
2022-07-25T17:22:03.932Z,2.00
2022-07-25T17:27:07.067Z,1.52
2022-07-25T17:32:10.573Z,1.88
2022-07-25T17:37:15.418Z,1.63
2022-07-25T17:42:22.660Z,1.65
2022-07-25T17:47:25.796Z,1.63
2022-07-25T17:52:30.709Z,1.52
2022-07-25T17:57:34.034Z,1.60
2022-07-25T18:02:37.641Z,1.70
2022-07-25T18:07:45.525Z,2.05
2022-07-25T18:12:49.115Z,2.03
2022-07-25T18:17:53.127Z,2.58
2022-07-25T18:22:58.988Z,2.67
2022-07-25T18:28:02.553Z,2.72
2022-07-25T18:33:05.978Z,2.67
2022-07-25T18:38:12.026Z,4.00
2022-07-25T18:43:15.275Z,2.88
2022-07-25T18:48:19.219Z,3.75
2022-07-25T18:53:25.389Z,3.08
2022-07-25T18:58:28.412Z,3.22
2022-07-25T19:03:34.255Z,2.85
2022-07-25T19:08:38.911Z,2.63
2022-07-25T19:13:50.978Z,3.08
2022-07-25T19:18:54.890Z,3.40
2022-07-25T19:23:59.489Z,3.40
2022-07-25T19:29:06.014Z,3.28
2022-07-25T19:34:09.486Z,3.88
2022-07-25T19:39:15.195Z,3.95
2022-07-25T19:44:18.342Z,3.55
2022-07-25T19:49:22.677Z,3.75
2022-07-25T19:54:27.283Z,3.47
2022-07-25T19:59:30.322Z,4.05
2022-07-25T20:04:33.407Z,4.43
2022-07-25T20:09:37.904Z,4.43
2022-07-25T20:14:40.885Z,3.95
2022-07-25T20:19:44.482Z,4.60
2022-07-25T20:24:49.182Z,4.30
2022-07-25T20:29:52.258Z,4.70
2022-07-25T20:34:56.093Z,4.15
2022-07-25T20:40:00.944Z,4.70
2022-07-25T20:45:04.429Z,4.85
2022-07-25T20:50:09.863Z,4.88
2022-07-25T20:55:14.600Z,5.32
2022-07-25T21:00:17.965Z,5.40
2022-07-25T21:05:21.207Z,4.85
2022-07-25T21:10:26.543Z,5.70
2022-07-25T21:15:31.153Z,5.43
2022-07-25T21:20:34.473Z,5.50
2022-07-25T21:25:39.149Z,5.53
2022-07-25T21:30:42.941Z,5.72
2022-07-25T21:35:52.831Z,6.10
2022-07-25T21:40:59.150Z,5.63
2022-07-25T21:46:02.159Z,5.95
2022-07-25T21:51:07.731Z,5.47
2022-07-25T21:56:12.439Z,5.93
2022-07-25T22:01:15.656Z,5.22
2022-07-25T22:06:19.562Z,5.85
2022-07-25T22:11:42.880Z,5.20
2022-07-25T22:16:47.791Z,5.55
2022-07-25T22:21:51.293Z,5.55
2022-07-25T22:26:56.050Z,6.00
2022-07-25T22:31:59.860Z,5.72
2022-07-25T22:37:03.577Z,6.65
2022-07-25T22:42:08.764Z,6.63
2022-07-25T22:47:11.938Z,6.25
2022-07-25T22:52:14.938Z,6.20
2022-07-25T22:57:19.577Z,7.10
2022-07-25T23:02:22.769Z,6.93
2022-07-25T23:07:26.159Z,7.22
2022-07-25T23:12:30.626Z,7.30
2022-07-25T23:17:33.844Z,7.00
2022-07-25T23:22:37.259Z,6.60
2022-07-25T23:27:41.792Z,5.72
2022-07-25T23:32:44.913Z,6.38
2022-07-25T23:37:48.047Z,7.00
2022-07-25T23:42:53.061Z,6.85
2022-07-25T23:47:56.732Z,6.35
2022-07-25T23:52:59.921Z,5.97
2022-07-25T23:58:04.695Z,6.28
